Аэропорт: Байкал. Улан-Удэ

ICAO: UIUU

METAR:
2019/05/26 14:00
UIUU 261400Z 34002MPS 9999 NSC 13/M04 Q1018 R26/CLRD60 NOSIG RMK QFE719/0959
METAR:
2019/05/26 12:24
TAF UIUU 261100Z 2612/2712 26003G08MPS 9999 NSC